sensor_id;sensor_type;location;lat;lon;timestamp;pressure;altitude;pressure_sealevel;temperature;humidity
84578;BME280;74803;44.756;19.218;2024-03-08T00:00:17;100799.78;;;13.20;56.45
84578;BME280;74803;44.756;19.218;2024-03-08T00:02:47;100801.44;;;13.60;55.74
84578;BME280;74803;44.756;19.218;2024-03-08T00:05:14;100804.88;;;12.81;57.32
84578;BME280;74803;44.756;19.218;2024-03-08T00:07:40;100804.69;;;13.07;56.29
84578;BME280;74803;44.756;19.218;2024-03-08T00:10:07;100807.94;;;13.01;56.24
84578;BME280;74803;44.756;19.218;2024-03-08T00:12:45;100806.63;;;13.21;56.41
84578;BME280;74803;44.756;19.218;2024-03-08T00:15:12;100807.94;;;13.17;56.55
84578;BME280;74803;44.756;19.218;2024-03-08T00:17:43;100798.81;;;12.96;56.91
84578;BME280;74803;44.756;19.218;2024-03-08T00:20:09;100804.44;;;13.79;54.16
84578;BME280;74803;44.756;19.218;2024-03-08T00:22:36;100802.72;;;13.17;56.36
84578;BME280;74803;44.756;19.218;2024-03-08T00:25:03;100798.97;;;13.58;55.51
84578;BME280;74803;44.756;19.218;2024-03-08T00:27:29;100804.97;;;13.04;56.23
84578;BME280;74803;44.756;19.218;2024-03-08T00:29:58;100800.69;;;14.05;53.82
84578;BME280;74803;44.756;19.218;2024-03-08T00:32:24;100797.06;;;13.83;54.48
84578;BME280;74803;44.756;19.218;2024-03-08T00:34:50;100797.63;;;14.24;52.99
84578;BME280;74803;44.756;19.218;2024-03-08T00:37:20;100795.63;;;14.26;53.14
84578;BME280;74803;44.756;19.218;2024-03-08T00:39:51;100803.94;;;14.38;53.23
84578;BME280;74803;44.756;19.218;2024-03-08T00:42:17;100799.75;;;14.66;52.17
84578;BME280;74803;44.756;19.218;2024-03-08T00:44:43;100795.91;;;14.77;51.67
84578;BME280;74803;44.756;19.218;2024-03-08T00:47:10;100797.06;;;14.37;52.32
84578;BME280;74803;44.756;19.218;2024-03-08T00:49:36;100796.50;;;14.49;52.64
84578;BME280;74803;44.756;19.218;2024-03-08T00:52:04;100791.97;;;14.43;52.24
84578;BME280;74803;44.756;19.218;2024-03-08T00:54:34;100787.66;;;13.97;53.41
84578;BME280;74803;44.756;19.218;2024-03-08T00:56:59;100791.59;;;14.46;52.92
84578;BME280;74803;44.756;19.218;2024-03-08T00:59:31;100785.97;;;14.72;51.26
84578;BME280;74803;44.756;19.218;2024-03-08T01:01:58;100793.88;;;15.16;50.48
84578;BME280;74803;44.756;19.218;2024-03-08T01:04:26;100793.47;;;14.38;52.31
84578;BME280;74803;44.756;19.218;2024-03-08T01:06:55;100790.41;;;14.86;51.77
84578;BME280;74803;44.756;19.218;2024-03-08T01:09:25;100789.66;;;14.17;52.47
84578;BME280;74803;44.756;19.218;2024-03-08T01:11:52;100782.94;;;14.23;52.83
84578;BME280;74803;44.756;19.218;2024-03-08T01:14:20;100782.84;;;15.35;49.63
84578;BME280;74803;44.756;19.218;2024-03-08T01:16:48;100784.28;;;14.19;52.46
84578;BME280;74803;44.756;19.218;2024-03-08T01:19:14;100784.97;;;14.13;52.99
84578;BME280;74803;44.756;19.218;2024-03-08T01:21:40;100787.25;;;13.54;53.96
84578;BME280;74803;44.756;19.218;2024-03-08T01:24:06;100791.22;;;14.04;53.46
84578;BME280;74803;44.756;19.218;2024-03-08T01:26:32;100790.09;;;14.29;52.55
84578;BME280;74803;44.756;19.218;2024-03-08T01:29:00;100784.03;;;14.06;52.71
84578;BME280;74803;44.756;19.218;2024-03-08T01:31:31;100789.34;;;13.59;54.70
84578;BME280;74803;44.756;19.218;2024-03-08T01:33:57;100785.66;;;15.48;49.92
84578;BME280;74803;44.756;19.218;2024-03-08T01:36:23;100787.25;;;14.76;51.53
84578;BME280;74803;44.756;19.218;2024-03-08T01:38:51;100785.84;;;14.51;52.15
84578;BME280;74803;44.756;19.218;2024-03-08T01:41:17;100784.34;;;14.71;51.17
84578;BME280;74803;44.756;19.218;2024-03-08T01:43:43;100776.53;;;14.03;52.99
84578;BME280;74803;44.756;19.218;2024-03-08T01:46:11;100781.47;;;13.98;53.42
84578;BME280;74803;44.756;19.218;2024-03-08T01:48:38;100781.22;;;13.84;53.54
84578;BME280;74803;44.756;19.218;2024-03-08T01:51:06;100780.03;;;13.95;53.11
84578;BME280;74803;44.756;19.218;2024-03-08T01:53:32;100782.69;;;14.55;51.48
84578;BME280;74803;44.756;19.218;2024-03-08T01:55:59;100784.31;;;13.88;53.10
84578;BME280;74803;44.756;19.218;2024-03-08T01:58:29;100781.78;;;13.33;54.55
84578;BME280;74803;44.756;19.218;2024-03-08T02:00:56;100782.53;;;14.57;51.13
84578;BME280;74803;44.756;19.218;2024-03-08T02:03:23;100786.84;;;15.02;50.18
84578;BME280;74803;44.756;19.218;2024-03-08T02:05:49;100788.22;;;14.75;50.57
84578;BME280;74803;44.756;19.218;2024-03-08T02:08:15;100792.34;;;14.32;52.28
84578;BME280;74803;44.756;19.218;2024-03-08T02:10:41;100787.97;;;14.02;53.23
84578;BME280;74803;44.756;19.218;2024-03-08T02:13:07;100789.13;;;14.22;52.92
84578;BME280;74803;44.756;19.218;2024-03-08T02:15:52;100784.13;;;14.12;52.65
84578;BME280;74803;44.756;19.218;2024-03-08T02:18:18;100781.66;;;14.42;51.80
84578;BME280;74803;44.756;19.218;2024-03-08T02:20:46;100793.31;;;14.91;51.01
84578;BME280;74803;44.756;19.218;2024-03-08T02:23:14;100784.56;;;14.24;52.47
84578;BME280;74803;44.756;19.218;2024-03-08T02:25:40;100788.28;;;14.90;51.45
84578;BME280;74803;44.756;19.218;2024-03-08T02:28:09;100787.78;;;14.26;52.64
84578;BME280;74803;44.756;19.218;2024-03-08T02:30:35;100794.53;;;15.03;50.65
84578;BME280;74803;44.756;19.218;2024-03-08T02:33:01;100791.34;;;15.08;50.48
84578;BME280;74803;44.756;19.218;2024-03-08T02:35:27;100793.34;;;14.54;51.86
84578;BME280;74803;44.756;19.218;2024-03-08T02:37:52;100787.16;;;14.69;51.65
84578;BME280;74803;44.756;19.218;2024-03-08T02:40:18;100792.75;;;14.81;50.24
84578;BME280;74803;44.756;19.218;2024-03-08T02:42:44;100792.63;;;15.27;49.79
84578;BME280;74803;44.756;19.218;2024-03-08T02:45:09;100786.03;;;15.01;49.88
84578;BME280;74803;44.756;19.218;2024-03-08T02:47:38;100781.50;;;14.20;52.28
84578;BME280;74803;44.756;19.218;2024-03-08T02:50:04;100784.84;;;14.52;51.75
84578;BME280;74803;44.756;19.218;2024-03-08T02:52:29;100784.31;;;15.67;48.99
84578;BME280;74803;44.756;19.218;2024-03-08T02:54:56;100790.34;;;14.11;52.77
84578;BME280;74803;44.756;19.218;2024-03-08T02:57:21;100801.72;;;13.18;54.86
84578;BME280;74803;44.756;19.218;2024-03-08T02:59:47;100787.97;;;13.40;54.63
84578;BME280;74803;44.756;19.218;2024-03-08T03:02:13;100796.47;;;13.73;53.61
84578;BME280;74803;44.756;19.218;2024-03-08T03:04:42;100803.56;;;13.87;53.73
84578;BME280;74803;44.756;19.218;2024-03-08T03:07:08;100794.94;;;13.48;54.79
84578;BME280;74803;44.756;19.218;2024-03-08T03:09:34;100798.78;;;13.99;53.34
84578;BME280;74803;44.756;19.218;2024-03-08T03:11:59;100796.91;;;13.84;53.21
84578;BME280;74803;44.756;19.218;2024-03-08T03:14:25;100798.69;;;14.15;52.57
84578;BME280;74803;44.756;19.218;2024-03-08T03:16:52;100799.28;;;14.17;52.44
84578;BME280;74803;44.756;19.218;2024-03-08T03:19:18;100802.34;;;14.06;52.70
84578;BME280;74803;44.756;19.218;2024-03-08T03:21:43;100803.91;;;13.84;52.41
84578;BME280;74803;44.756;19.218;2024-03-08T03:24:09;100799.28;;;14.17;51.45
84578;BME280;74803;44.756;19.218;2024-03-08T03:26:39;100800.84;;;13.80;53.57
84578;BME280;74803;44.756;19.218;2024-03-08T03:29:06;100802.47;;;14.35;52.39
84578;BME280;74803;44.756;19.218;2024-03-08T03:31:32;100805.31;;;13.09;54.71
84578;BME280;74803;44.756;19.218;2024-03-08T03:33:57;100797.13;;;13.98;53.16
84578;BME280;74803;44.756;19.218;2024-03-08T03:36:28;100801.00;;;13.79;53.47
84578;BME280;74803;44.756;19.218;2024-03-08T03:38:53;100804.97;;;13.98;52.82
84578;BME280;74803;44.756;19.218;2024-03-08T03:41:32;100800.88;;;14.26;52.48
84578;BME280;74803;44.756;19.218;2024-03-08T03:43:58;100801.06;;;13.71;53.65
84578;BME280;74803;44.756;19.218;2024-03-08T03:46:24;100804.91;;;13.83;53.05
84578;BME280;74803;44.756;19.218;2024-03-08T03:48:50;100803.94;;;13.37;54.38
84578;BME280;74803;44.756;19.218;2024-03-08T03:51:15;100802.84;;;14.24;52.42
84578;BME280;74803;44.756;19.218;2024-03-08T03:53:41;100809.97;;;13.84;52.54
84578;BME280;74803;44.756;19.218;2024-03-08T03:56:07;100802.59;;;13.88;53.11
84578;BME280;74803;44.756;19.218;2024-03-08T03:58:33;100804.72;;;14.15;51.65
84578;BME280;74803;44.756;19.218;2024-03-08T04:00:58;100815.81;;;13.87;52.35
84578;BME280;74803;44.756;19.218;2024-03-08T04:03:24;100814.19;;;13.86;53.44
84578;BME280;74803;44.756;19.218;2024-03-08T04:05:49;100811.22;;;14.19;52.47
84578;BME280;74803;44.756;19.218;2024-03-08T04:08:16;100812.78;;;13.36;54.00
84578;BME280;74803;44.756;19.218;2024-03-08T04:10:42;100800.81;;;12.62;55.89
84578;BME280;74803;44.756;19.218;2024-03-08T04:13:08;100815.66;;;13.49;54.73
84578;BME280;74803;44.756;19.218;2024-03-08T04:15:35;100806.44;;;13.69;54.30
84578;BME280;74803;44.756;19.218;2024-03-08T04:18:01;100810.88;;;12.89;55.98
84578;BME280;74803;44.756;19.218;2024-03-08T04:20:27;100808.25;;;13.22;55.60
84578;BME280;74803;44.756;19.218;2024-03-08T04:22:53;100812.38;;;12.51;57.32
84578;BME280;74803;44.756;19.218;2024-03-08T04:25:18;100816.84;;;13.77;54.29
84578;BME280;74803;44.756;19.218;2024-03-08T04:27:45;100813.16;;;13.17;54.86
84578;BME280;74803;44.756;19.218;2024-03-08T04:30:12;100816.03;;;13.77;54.15
84578;BME280;74803;44.756;19.218;2024-03-08T04:32:38;100817.88;;;13.99;52.84
84578;BME280;74803;44.756;19.218;2024-03-08T04:35:03;100818.59;;;13.85;52.88
84578;BME280;74803;44.756;19.218;2024-03-08T04:37:29;100821.38;;;13.83;52.69
84578;BME280;74803;44.756;19.218;2024-03-08T04:39:55;100816.13;;;13.53;53.83
84578;BME280;74803;44.756;19.218;2024-03-08T04:42:21;100826.19;;;13.01;55.57
84578;BME280;74803;44.756;19.218;2024-03-08T04:44:47;100822.44;;;13.19;55.27
84578;BME280;74803;44.756;19.218;2024-03-08T04:47:13;100825.34;;;13.08;56.30
84578;BME280;74803;44.756;19.218;2024-03-08T04:49:39;100821.78;;;13.17;55.35
84578;BME280;74803;44.756;19.218;2024-03-08T04:52:05;100823.28;;;13.59;54.40
84578;BME280;74803;44.756;19.218;2024-03-08T04:54:31;100824.00;;;13.83;53.55
84578;BME280;74803;44.756;19.218;2024-03-08T04:56:57;100827.22;;;13.94;52.21
84578;BME280;74803;44.756;19.218;2024-03-08T04:59:22;100825.25;;;14.49;51.07
84578;BME280;74803;44.756;19.218;2024-03-08T05:01:49;100827.94;;;14.33;51.38
84578;BME280;74803;44.756;19.218;2024-03-08T05:04:14;100823.91;;;14.00;51.97
84578;BME280;74803;44.756;19.218;2024-03-08T05:06:40;100820.53;;;13.60;54.09
84578;BME280;74803;44.756;19.218;2024-03-08T05:09:06;100820.66;;;13.20;54.88
84578;BME280;74803;44.756;19.218;2024-03-08T05:11:45;100825.22;;;12.69;56.07
84578;BME280;74803;44.756;19.218;2024-03-08T05:14:11;100822.06;;;13.38;54.55
84578;BME280;74803;44.756;19.218;2024-03-08T05:16:44;100829.63;;;13.64;54.04
84578;BME280;74803;44.756;19.218;2024-03-08T05:19:18;100829.16;;;14.22;52.77
84578;BME280;74803;44.756;19.218;2024-03-08T05:21:47;100827.13;;;13.40;54.02
84578;BME280;74803;44.756;19.218;2024-03-08T05:24:13;100834.81;;;13.17;54.83
84578;BME280;74803;44.756;19.218;2024-03-08T05:26:40;100833.88;;;13.02;55.11
84578;BME280;74803;44.756;19.218;2024-03-08T05:29:07;100834.28;;;13.38;54.89
84578;BME280;74803;44.756;19.218;2024-03-08T05:31:48;100829.31;;;13.59;54.03
84578;BME280;74803;44.756;19.218;2024-03-08T05:34:18;100839.75;;;13.12;55.69
84578;BME280;74803;44.756;19.218;2024-03-08T05:36:45;100844.63;;;13.07;55.54
84578;BME280;74803;44.756;19.218;2024-03-08T05:39:19;100839.88;;;12.94;55.90
84578;BME280;74803;44.756;19.218;2024-03-08T05:41:48;100841.03;;;12.84;56.33
84578;BME280;74803;44.756;19.218;2024-03-08T05:44:14;100843.56;;;13.49;54.39
84578;BME280;74803;44.756;19.218;2024-03-08T05:46:42;100847.28;;;13.54;54.35
84578;BME280;74803;44.756;19.218;2024-03-08T05:49:08;100849.63;;;13.33;54.28
84578;BME280;74803;44.756;19.218;2024-03-08T05:51:38;100846.06;;;13.26;55.38
84578;BME280;74803;44.756;19.218;2024-03-08T05:54:07;100852.25;;;13.09;55.07
84578;BME280;74803;44.756;19.218;2024-03-08T05:56:37;100851.13;;;12.95;55.27
84578;BME280;74803;44.756;19.218;2024-03-08T05:59:03;100860.91;;;12.93;55.93
84578;BME280;74803;44.756;19.218;2024-03-08T06:01:29;100864.50;;;13.00;56.16
84578;BME280;74803;44.756;19.218;2024-03-08T06:03:56;100864.31;;;13.34;55.17
84578;BME280;74803;44.756;19.218;2024-03-08T06:06:23;100858.13;;;13.35;55.23
84578;BME280;74803;44.756;19.218;2024-03-08T06:08:49;100856.81;;;13.23;55.21
84578;BME280;74803;44.756;19.218;2024-03-08T06:11:15;100866.94;;;12.37;57.34
84578;BME280;74803;44.756;19.218;2024-03-08T06:13:43;100865.97;;;12.78;56.60
84578;BME280;74803;44.756;19.218;2024-03-08T06:16:08;100867.06;;;13.88;54.28
84578;BME280;74803;44.756;19.218;2024-03-08T06:18:35;100872.03;;;13.11;55.24
84578;BME280;74803;44.756;19.218;2024-03-08T06:21:05;100871.69;;;13.06;55.66
84578;BME280;74803;44.756;19.218;2024-03-08T06:23:33;100856.47;;;13.34;54.81
84578;BME280;74803;44.756;19.218;2024-03-08T06:26:00;100862.56;;;13.73;54.10
84578;BME280;74803;44.756;19.218;2024-03-08T06:28:26;100871.41;;;14.03;54.31
84578;BME280;74803;44.756;19.218;2024-03-08T06:30:52;100863.31;;;13.90;53.24
84578;BME280;74803;44.756;19.218;2024-03-08T06:33:18;100870.94;;;13.61;53.67
84578;BME280;74803;44.756;19.218;2024-03-08T06:35:44;100869.25;;;13.76;54.20
84578;BME280;74803;44.756;19.218;2024-03-08T06:38:09;100875.41;;;13.36;54.18
84578;BME280;74803;44.756;19.218;2024-03-08T06:40:37;100873.91;;;13.50;54.48
84578;BME280;74803;44.756;19.218;2024-03-08T06:43:02;100880.59;;;13.44;54.39
84578;BME280;74803;44.756;19.218;2024-03-08T06:45:31;100877.88;;;13.76;53.60
84578;BME280;74803;44.756;19.218;2024-03-08T06:47:57;100883.69;;;13.56;54.26
84578;BME280;74803;44.756;19.218;2024-03-08T06:50:23;100887.19;;;13.79;53.55
84578;BME280;74803;44.756;19.218;2024-03-08T06:52:48;100883.22;;;13.91;53.79
84578;BME280;74803;44.756;19.218;2024-03-08T06:55:19;100879.09;;;14.27;52.48
84578;BME280;74803;44.756;19.218;2024-03-08T06:57:46;100874.28;;;14.47;51.91
84578;BME280;74803;44.756;19.218;2024-03-08T07:00:12;100887.28;;;14.78;51.09
84578;BME280;74803;44.756;19.218;2024-03-08T07:02:44;100877.00;;;14.23;52.45
84578;BME280;74803;44.756;19.218;2024-03-08T07:05:14;100879.22;;;14.42;51.52
84578;BME280;74803;44.756;19.218;2024-03-08T07:07:41;100892.28;;;14.88;50.87
84578;BME280;74803;44.756;19.218;2024-03-08T07:10:08;100879.97;;;14.51;52.06
84578;BME280;74803;44.756;19.218;2024-03-08T07:12:37;100888.75;;;14.27;52.45
84578;BME280;74803;44.756;19.218;2024-03-08T07:15:05;100891.25;;;14.20;52.64
84578;BME280;74803;44.756;19.218;2024-03-08T07:17:31;100884.56;;;14.72;51.07
84578;BME280;74803;44.756;19.218;2024-03-08T07:19:59;100890.66;;;14.87;50.52
84578;BME280;74803;44.756;19.218;2024-03-08T07:22:27;100890.56;;;15.18;49.96
84578;BME280;74803;44.756;19.218;2024-03-08T07:24:53;100889.00;;;15.08;49.55
84578;BME280;74803;44.756;19.218;2024-03-08T07:27:32;100884.19;;;14.97;50.15
84578;BME280;74803;44.756;19.218;2024-03-08T07:29:59;100892.44;;;14.86;50.90
84578;BME280;74803;44.756;19.218;2024-03-08T07:32:26;100884.88;;;14.91;50.64
84578;BME280;74803;44.756;19.218;2024-03-08T07:34:54;100890.31;;;14.90;50.77
84578;BME280;74803;44.756;19.218;2024-03-08T07:37:20;100889.81;;;15.09;49.53
84578;BME280;74803;44.756;19.218;2024-03-08T07:39:46;100888.34;;;15.06;50.03
84578;BME280;74803;44.756;19.218;2024-03-08T07:42:12;100887.09;;;15.02;50.24
84578;BME280;74803;44.756;19.218;2024-03-08T07:44:38;100887.09;;;15.02;50.04
84578;BME280;74803;44.756;19.218;2024-03-08T07:47:04;100898.06;;;15.50;48.76
84578;BME280;74803;44.756;19.218;2024-03-08T07:49:30;100901.00;;;15.70;48.53
84578;BME280;74803;44.756;19.218;2024-03-08T07:51:58;100905.88;;;15.73;47.95
84578;BME280;74803;44.756;19.218;2024-03-08T07:54:24;100905.63;;;15.30;48.55
84578;BME280;74803;44.756;19.218;2024-03-08T07:56:51;100899.72;;;16.31;47.15
84578;BME280;74803;44.756;19.218;2024-03-08T07:59:18;100903.56;;;15.40;48.89
84578;BME280;74803;44.756;19.218;2024-03-08T08:01:43;100904.34;;;15.78;47.98
84578;BME280;74803;44.756;19.218;2024-03-08T08:04:10;100906.44;;;15.31;48.89
84578;BME280;74803;44.756;19.218;2024-03-08T08:06:40;100904.72;;;16.26;47.15
84578;BME280;74803;44.756;19.218;2024-03-08T08:09:09;100906.09;;;16.43;47.11
84578;BME280;74803;44.756;19.218;2024-03-08T08:11:41;100904.38;;;16.14;47.30
84578;BME280;74803;44.756;19.218;2024-03-08T08:14:09;100900.97;;;16.35;46.52
84578;BME280;74803;44.756;19.218;2024-03-08T08:16:36;100899.28;;;16.49;46.37
84578;BME280;74803;44.756;19.218;2024-03-08T08:19:08;100900.25;;;16.83;45.48
84578;BME280;74803;44.756;19.218;2024-03-08T08:21:36;100906.47;;;15.89;48.01
84578;BME280;74803;44.756;19.218;2024-03-08T08:24:03;100903.91;;;16.61;47.17
84578;BME280;74803;44.756;19.218;2024-03-08T08:26:29;100906.25;;;16.20;47.36
84578;BME280;74803;44.756;19.218;2024-03-08T08:28:55;100903.44;;;15.71;48.33
84578;BME280;74803;44.756;19.218;2024-03-08T08:31:20;100904.28;;;15.34;49.07
84578;BME280;74803;44.756;19.218;2024-03-08T08:33:46;100901.50;;;15.36;48.58
84578;BME280;74803;44.756;19.218;2024-03-08T08:36:13;100904.41;;;15.85;47.66
84578;BME280;74803;44.756;19.218;2024-03-08T08:38:39;100907.66;;;16.02;47.20
84578;BME280;74803;44.756;19.218;2024-03-08T08:41:04;100903.72;;;16.27;46.58
84578;BME280;74803;44.756;19.218;2024-03-08T08:43:31;100912.16;;;16.43;46.70
84578;BME280;74803;44.756;19.218;2024-03-08T08:45:59;100905.25;;;17.00;45.49
84578;BME280;74803;44.756;19.218;2024-03-08T08:48:26;100904.72;;;16.26;48.58
84578;BME280;74803;44.756;19.218;2024-03-08T08:50:54;100900.84;;;16.43;48.25
84578;BME280;74803;44.756;19.218;2024-03-08T08:53:20;100912.63;;;16.68;47.22
84578;BME280;74803;44.756;19.218;2024-03-08T08:55:47;100906.69;;;16.24;47.77
84578;BME280;74803;44.756;19.218;2024-03-08T08:58:12;100910.72;;;16.41;48.06
84578;BME280;74803;44.756;19.218;2024-03-08T09:00:39;100896.16;;;16.74;47.15
84578;BME280;74803;44.756;19.218;2024-03-08T09:03:05;100905.25;;;16.78;46.28
84578;BME280;74803;44.756;19.218;2024-03-08T09:05:33;100902.88;;;16.41;47.84
84578;BME280;74803;44.756;19.218;2024-03-08T09:07:59;100902.28;;;16.81;46.60
84578;BME280;74803;44.756;19.218;2024-03-08T09:10:26;100908.31;;;17.03;46.04
84578;BME280;74803;44.756;19.218;2024-03-08T09:12:53;100904.34;;;17.14;45.14
84578;BME280;74803;44.756;19.218;2024-03-08T09:15:18;100906.16;;;16.64;45.31
84578;BME280;74803;44.756;19.218;2024-03-08T09:17:46;100908.06;;;16.98;45.26
84578;BME280;74803;44.756;19.218;2024-03-08T09:20:13;100904.78;;;17.17;44.29
84578;BME280;74803;44.756;19.218;2024-03-08T09:22:45;100900.81;;;17.56;43.90
84578;BME280;74803;44.756;19.218;2024-03-08T09:25:16;100896.63;;;17.06;44.53
84578;BME280;74803;44.756;19.218;2024-03-08T09:27:45;100897.06;;;16.46;45.60
84578;BME280;74803;44.756;19.218;2024-03-08T09:30:12;100898.88;;;17.09;42.90
84578;BME280;74803;44.756;19.218;2024-03-08T09:32:38;100898.44;;;17.05;43.15
84578;BME280;74803;44.756;19.218;2024-03-08T09:35:04;100899.69;;;17.09;42.80
84578;BME280;74803;44.756;19.218;2024-03-08T09:37:35;100901.81;;;16.99;43.32
84578;BME280;74803;44.756;19.218;2024-03-08T09:40:01;100905.41;;;17.19;43.81
84578;BME280;74803;44.756;19.218;2024-03-08T09:42:30;100898.91;;;17.15;43.35
84578;BME280;74803;44.756;19.218;2024-03-08T09:44:58;100899.50;;;17.73;41.94
84578;BME280;74803;44.756;19.218;2024-03-08T09:47:25;100905.25;;;17.55;42.40
84578;BME280;74803;44.756;19.218;2024-03-08T09:49:59;100895.09;;;16.90;43.54
84578;BME280;74803;44.756;19.218;2024-03-08T09:52:25;100899.16;;;16.35;44.61
84578;BME280;74803;44.756;19.218;2024-03-08T09:54:52;100898.59;;;16.76;44.12
84578;BME280;74803;44.756;19.218;2024-03-08T09:57:18;100898.34;;;16.92;44.31
84578;BME280;74803;44.756;19.218;2024-03-08T09:59:44;100900.56;;;16.95;44.41
84578;BME280;74803;44.756;19.218;2024-03-08T10:02:14;100901.66;;;16.79;44.27
84578;BME280;74803;44.756;19.218;2024-03-08T10:04:40;100910.84;;;15.82;45.93
84578;BME280;74803;44.756;19.218;2024-03-08T10:07:11;100911.00;;;17.65;42.80
84578;BME280;74803;44.756;19.218;2024-03-08T10:09:38;100903.44;;;17.00;43.12
84578;BME280;74803;44.756;19.218;2024-03-08T10:12:05;100906.66;;;16.96;43.78
84578;BME280;74803;44.756;19.218;2024-03-08T10:14:30;100898.44;;;17.33;43.29
84578;BME280;74803;44.756;19.218;2024-03-08T10:16:59;100906.63;;;17.79;42.31
84578;BME280;74803;44.756;19.218;2024-03-08T10:19:27;100897.59;;;17.95;42.48
84578;BME280;74803;44.756;19.218;2024-03-08T10:21:55;100896.72;;;17.19;42.76
84578;BME280;74803;44.756;19.218;2024-03-08T10:24:25;100894.44;;;17.09;42.58
84578;BME280;74803;44.756;19.218;2024-03-08T10:27:02;100882.16;;;18.46;40.05
84578;BME280;74803;44.756;19.218;2024-03-08T10:29:33;100892.03;;;18.24;40.84
84578;BME280;74803;44.756;19.218;2024-03-08T10:31:58;100887.44;;;17.85;42.54
84578;BME280;74803;44.756;19.218;2024-03-08T10:34:25;100880.41;;;18.73;39.72
84578;BME280;74803;44.756;19.218;2024-03-08T10:36:51;100886.53;;;18.12;40.79
84578;BME280;74803;44.756;19.218;2024-03-08T10:39:24;100888.47;;;17.91;42.32
84578;BME280;74803;44.756;19.218;2024-03-08T10:42:02;100880.97;;;18.55;40.88
84578;BME280;74803;44.756;19.218;2024-03-08T10:47:27;100883.44;;;18.63;41.79
84578;BME280;74803;44.756;19.218;2024-03-08T10:50:11;100892.72;;;19.45;38.81
84578;BME280;74803;44.756;19.218;2024-03-08T10:52:42;100891.94;;;20.02;38.56
84578;BME280;74803;44.756;19.218;2024-03-08T10:55:10;100878.19;;;19.09;39.34
84578;BME280;74803;44.756;19.218;2024-03-08T10:57:39;100879.38;;;19.97;38.68
84578;BME280;74803;44.756;19.218;2024-03-08T11:00:08;100875.22;;;19.76;38.51
84578;BME280;74803;44.756;19.218;2024-03-08T11:02:38;100872.34;;;20.22;37.78
84578;BME280;74803;44.756;19.218;2024-03-08T11:05:03;100873.56;;;20.58;37.48
84578;BME280;74803;44.756;19.218;2024-03-08T11:07:34;100861.91;;;20.03;38.70
84578;BME280;74803;44.756;19.218;2024-03-08T11:10:03;100868.56;;;19.67;39.09
84578;BME280;74803;44.756;19.218;2024-03-08T11:12:39;100861.91;;;18.40;40.75
84578;BME280;74803;44.756;19.218;2024-03-08T11:15:11;100863.81;;;18.98;39.80
84578;BME280;74803;44.756;19.218;2024-03-08T11:20:24;100862.97;;;18.85;40.38
84578;BME280;74803;44.756;19.218;2024-03-08T11:22:55;100859.06;;;18.41;40.21
84578;BME280;74803;44.756;19.218;2024-03-08T11:25:39;100854.88;;;18.53;42.01
84578;BME280;74803;44.756;19.218;2024-03-08T11:28:23;100856.50;;;20.85;35.74
84578;BME280;74803;44.756;19.218;2024-03-08T11:33:35;100859.38;;;19.76;38.33
84578;BME280;74803;44.756;19.218;2024-03-08T11:36:08;100850.63;;;20.20;37.69
84578;BME280;74803;44.756;19.218;2024-03-08T11:38:43;100846.84;;;19.72;38.12
84578;BME280;74803;44.756;19.218;2024-03-08T11:41:10;100846.84;;;19.59;37.74
84578;BME280;74803;44.756;19.218;2024-03-08T11:43:40;100842.03;;;19.42;37.11
84578;BME280;74803;44.756;19.218;2024-03-08T11:46:10;100852.03;;;19.85;37.24
84578;BME280;74803;44.756;19.218;2024-03-08T11:48:46;100841.03;;;19.30;37.58
84578;BME280;74803;44.756;19.218;2024-03-08T11:51:14;100839.66;;;19.28;37.84
84578;BME280;74803;44.756;19.218;2024-03-08T11:53:41;100832.75;;;20.60;36.26
84578;BME280;74803;44.756;19.218;2024-03-08T11:56:10;100827.59;;;20.90;35.89
84578;BME280;74803;44.756;19.218;2024-03-08T11:58:40;100830.47;;;22.28;33.82
84578;BME280;74803;44.756;19.218;2024-03-08T12:01:11;100825.75;;;21.52;34.64
84578;BME280;74803;44.756;19.218;2024-03-08T12:03:40;100825.47;;;20.81;35.39
84578;BME280;74803;44.756;19.218;2024-03-08T12:06:15;100819.75;;;21.45;34.80
84578;BME280;74803;44.756;19.218;2024-03-08T12:08:40;100819.63;;;22.18;34.22
84578;BME280;74803;44.756;19.218;2024-03-08T12:11:07;100816.69;;;21.78;34.74
84578;BME280;74803;44.756;19.218;2024-03-08T12:13:36;100814.75;;;22.03;33.57
84578;BME280;74803;44.756;19.218;2024-03-08T12:16:06;100810.34;;;21.97;33.95
84578;BME280;74803;44.756;19.218;2024-03-08T12:18:37;100815.25;;;21.64;34.22
84578;BME280;74803;44.756;19.218;2024-03-08T12:21:06;100816.50;;;20.25;35.80
84578;BME280;74803;44.756;19.218;2024-03-08T12:24:03;100819.53;;;19.53;37.75
84578;BME280;74803;44.756;19.218;2024-03-08T12:26:29;100806.66;;;19.76;37.71
84578;BME280;74803;44.756;19.218;2024-03-08T12:29:32;100807.84;;;19.80;38.20
84578;BME280;74803;44.756;19.218;2024-03-08T12:31:59;100800.41;;;20.65;35.97
84578;BME280;74803;44.756;19.218;2024-03-08T12:34:29;100799.59;;;21.07;35.08
84578;BME280;74803;44.756;19.218;2024-03-08T12:36:56;100797.28;;;20.18;37.05
84578;BME280;74803;44.756;19.218;2024-03-08T12:39:22;100796.94;;;21.07;35.10
84578;BME280;74803;44.756;19.218;2024-03-08T12:41:53;100798.56;;;21.63;34.44
84578;BME280;74803;44.756;19.218;2024-03-08T12:44:20;100797.16;;;22.97;31.84
84578;BME280;74803;44.756;19.218;2024-03-08T12:46:52;100786.50;;;21.19;33.86
84578;BME280;74803;44.756;19.218;2024-03-08T12:49:19;100789.78;;;21.81;33.68
84578;BME280;74803;44.756;19.218;2024-03-08T12:51:48;100795.03;;;23.34;31.59